Time;durP1;ratioP1;P1;durP2;ratioP2;P2;SDS_P1;SDS_P2;PMS_P1;PMS_P2;Temp;Humidity;BMP_temperature;BMP_pressure;BME280_temperature;BME280_humidity;BME280_pressure;Samples;Min_cycle;Max_cycle;Signal;HPM_P1;HPM_P2
2023/02/07 00:01:23;;;;;;;117.53;65.97;;;-3.70;99.90;;;;;;4958750;28;20581;-79
2023/02/07 00:03:51;;;;;;;145.30;71.20;;;-3.80;99.90;;;;;;4957668;29;20207;-79
2023/02/07 00:06:24;;;;;;;135.40;68.78;;;-4.00;99.90;;;;;;4962955;29;20211;-77
2023/02/07 00:08:53;;;;;;;123.95;67.40;;;-4.00;99.90;;;;;;4954271;29;20204;-81
2023/02/07 00:11:22;;;;;;;118.75;64.63;;;-3.80;99.90;;;;;;4959356;28;20231;-78
2023/02/07 00:13:52;;;;;;;106.97;63.72;;;-3.70;99.90;;;;;;4953052;29;20199;-78
2023/02/07 00:16:20;;;;;;;114.93;64.55;;;-3.80;99.90;;;;;;4958662;28;20208;-78
2023/02/07 00:18:48;;;;;;;133.95;69.03;;;-3.90;99.90;;;;;;4958640;28;20207;-77
2023/02/07 00:21:17;;;;;;;127.43;68.10;;;-4.10;99.90;;;;;;4958321;28;20216;-77
2023/02/07 00:23:45;;;;;;;118.63;69.95;;;-4.20;99.90;;;;;;4961122;28;20215;-79
2023/02/07 00:26:17;;;;;;;128.43;68.38;;;-4.00;99.90;;;;;;4961902;28;20250;-79
2023/02/07 00:28:43;;;;;;;129.45;69.80;;;-4.00;99.90;;;;;;4961055;28;20522;-77
2023/02/07 00:31:17;;;;;;;108.28;64.50;;;-4.10;99.90;;;;;;4959322;28;20237;-79
2023/02/07 00:33:46;;;;;;;116.63;65.78;;;-4.00;99.90;;;;;;4958417;28;20474;-80
2023/02/07 00:36:16;;;;;;;130.65;68.22;;;-4.10;99.90;;;;;;4958960;28;20211;-79
2023/02/07 00:38:43;;;;;;;129.27;66.70;;;-4.10;99.90;;;;;;4958173;28;20227;-78
2023/02/07 00:41:17;;;;;;;124.55;69.50;;;-3.90;99.90;;;;;;4957958;28;20266;-81
2023/02/07 00:43:46;;;;;;;122.32;63.83;;;-3.90;99.90;;;;;;4957506;29;20262;-79
2023/02/07 00:46:13;;;;;;;122.55;62.63;;;-3.80;99.90;;;;;;4958284;29;20601;-79
2023/02/07 00:48:40;;;;;;;119.60;67.78;;;-3.70;99.90;;;;;;4958840;29;20211;-79
2023/02/07 00:51:08;;;;;;;113.43;64.53;;;-3.70;99.90;;;;;;4957454;28;20235;-80
2023/02/07 00:53:35;;;;;;;116.03;64.28;;;-3.80;99.90;;;;;;4957876;28;20218;-78
2023/02/07 00:56:02;;;;;;;123.90;66.63;;;-3.80;99.90;;;;;;4957560;28;20215;-79
2023/02/07 00:58:29;;;;;;;124.85;64.88;;;-3.70;99.90;;;;;;4957474;28;20215;-78
2023/02/07 01:00:57;;;;;;;124.10;66.85;;;-3.80;99.90;;;;;;4947073;29;20203;-78
2023/02/07 01:03:24;;;;;;;115.90;63.97;;;-4.00;99.90;;;;;;4959618;28;20238;-79
2023/02/07 01:05:51;;;;;;;110.25;62.97;;;-4.00;99.90;;;;;;4958257;28;20210;-80
2023/02/07 01:08:18;;;;;;;127.18;66.30;;;-4.00;99.90;;;;;;4957872;28;20308;-77
2023/02/07 01:10:46;;;;;;;122.63;62.33;;;-4.20;99.90;;;;;;4956651;29;20251;-80
2023/02/07 01:13:14;;;;;;;127.53;65.80;;;-4.20;99.90;;;;;;4959550;28;20242;-79
2023/02/07 01:15:44;;;;;;;132.25;75.47;;;-4.10;99.90;;;;;;4959812;28;20269;-79
2023/02/07 01:18:11;;;;;;;133.18;67.72;;;-4.00;99.90;;;;;;4960490;29;20207;-80
2023/02/07 01:20:38;;;;;;;128.02;68.82;;;-4.00;99.90;;;;;;4960825;29;20666;-80
2023/02/07 01:23:06;;;;;;;135.15;67.68;;;-4.00;99.90;;;;;;4958910;28;20265;-81
2023/02/07 01:25:33;;;;;;;133.23;66.78;;;-4.10;99.90;;;;;;4961348;28;20206;-78
2023/02/07 01:28:00;;;;;;;121.75;67.55;;;-4.10;99.90;;;;;;4961003;28;20207;-78
2023/02/07 01:30:27;;;;;;;132.75;66.53;;;-4.10;99.90;;;;;;4961108;28;20219;-78
2023/02/07 01:32:54;;;;;;;124.85;70.05;;;-4.20;99.90;;;;;;4961272;28;20282;-79
2023/02/07 01:35:21;;;;;;;140.57;70.18;;;-4.20;99.90;;;;;;4959433;28;20262;-79
2023/02/07 01:37:49;;;;;;;129.05;70.28;;;-4.20;99.90;;;;;;4954765;29;20226;-78
2023/02/07 01:40:15;;;;;;;127.60;76.18;;;-4.60;99.90;;;;;;4960008;29;20446;-78
2023/02/07 01:42:42;;;;;;;122.85;68.15;;;-4.50;99.90;;;;;;4960087;28;20218;-80
2023/02/07 01:45:24;;;;;;;125.00;71.40;;;-4.30;99.90;;;;;;4953306;29;20207;-79
2023/02/07 01:47:53;;;;;;;130.35;71.38;;;-4.30;99.90;;;;;;4957471;29;20231;-80
2023/02/07 01:50:21;;;;;;;135.88;73.50;;;-4.30;99.90;;;;;;4958645;29;20484;-79
2023/02/07 01:52:48;;;;;;;134.27;74.05;;;-4.30;99.90;;;;;;4959526;28;20238;-79
2023/02/07 01:55:21;;;;;;;163.48;82.57;;;-4.20;99.90;;;;;;4958790;28;20438;-80
2023/02/07 01:57:48;;;;;;;181.27;87.03;;;-4.20;99.90;;;;;;4951514;29;20419;-77
2023/02/07 02:00:17;;;;;;;177.88;89.07;;;-4.30;99.90;;;;;;4957023;29;20211;-80
2023/02/07 02:02:44;;;;;;;167.32;84.63;;;-4.30;99.90;;;;;;4973163;28;20218;-81
2023/02/07 02:05:12;;;;;;;159.25;84.72;;;-4.40;99.90;;;;;;4958415;28;20208;-80
2023/02/07 02:07:39;;;;;;;175.98;85.13;;;-4.40;99.90;;;;;;4958920;28;20282;-79
2023/02/07 02:10:20;;;;;;;148.15;82.18;;;-4.40;99.90;;;;;;4959642;28;20219;-78
2023/02/07 02:13:02;;;;;;;158.27;85.13;;;-4.40;99.90;;;;;;4959020;28;20230;-77
2023/02/07 02:15:39;;;;;;;151.98;81.95;;;-4.50;99.90;;;;;;4966150;28;20637;-81
2023/02/07 02:18:55;;;;;;;158.65;87.82;;;-4.50;99.90;;;;;;4962665;28;20199;-80
2023/02/07 02:21:43;;;;;;;156.73;81.13;;;-4.40;99.90;;;;;;4938667;28;20215;-80
2023/02/07 02:24:45;;;;;;;161.55;82.68;;;-4.40;99.90;;;;;;4962216;28;20215;-80
2023/02/07 02:27:42;;;;;;;163.57;83.55;;;-4.50;99.90;;;;;;4931768;29;20203;-79
2023/02/07 02:30:28;;;;;;;148.77;84.15;;;-4.70;99.90;;;;;;4963752;28;20203;-80
2023/02/07 02:33:09;;;;;;;166.93;89.10;;;-4.80;99.90;;;;;;4962628;28;20305;-80
2023/02/07 02:35:51;;;;;;;166.00;87.53;;;-4.70;99.90;;;;;;4962540;28;20242;-80
2023/02/07 02:38:28;;;;;;;179.55;89.45;;;-4.80;99.90;;;;;;4960874;29;20218;-80
2023/02/07 02:41:07;;;;;;;148.32;84.03;;;-4.70;99.90;;;;;;4957556;28;20427;-79
2023/02/07 02:43:43;;;;;;;169.88;93.57;;;-4.70;99.90;;;;;;4959660;28;20279;-79
2023/02/07 02:46:20;;;;;;;158.98;86.38;;;-4.60;99.90;;;;;;4957764;28;20203;-80
2023/02/07 02:48:49;;;;;;;236.40;112.43;;;-4.60;99.90;;;;;;4953340;29;20230;-77
2023/02/07 02:51:16;;;;;;;199.65;104.70;;;-4.50;99.90;;;;;;4959344;28;20211;-79
2023/02/07 02:53:57;;;;;;;177.60;93.75;;;-4.60;99.90;;;;;;4954113;29;20212;-78
2023/02/07 02:56:57;;;;;;;145.73;86.30;;;-4.60;99.90;;;;;;4946324;29;20207;-79
2023/02/07 02:59:46;;;;;;;163.35;88.65;;;-4.70;99.90;;;;;;4956797;29;20411;-81
2023/02/07 03:02:22;;;;;;;165.13;90.38;;;-4.70;99.90;;;;;;4961150;28;20234;-80
2023/02/07 03:05:13;;;;;;;155.32;83.97;;;-4.60;99.90;;;;;;4962047;29;20203;-80
2023/02/07 03:08:17;;;;;;;159.30;86.65;;;-4.70;99.90;;;;;;4959103;28;20279;-78
2023/02/07 03:11:01;;;;;;;168.65;81.40;;;-4.70;99.90;;;;;;4956324;28;20278;-78
2023/02/07 03:13:48;;;;;;;158.38;81.40;;;-4.60;99.90;;;;;;4961964;28;20234;-82
2023/02/07 03:16:22;;;;;;;162.73;81.30;;;-4.70;99.90;;;;;;4963281;28;20214;-80
2023/02/07 03:19:05;;;;;;;142.75;78.55;;;-4.70;99.90;;;;;;4976847;28;20209;-81
2023/02/07 03:21:58;;;;;;;154.68;74.10;;;-4.70;99.90;;;;;;4960025;28;20270;-80
2023/02/07 03:24:30;;;;;;;138.18;72.93;;;-4.80;99.90;;;;;;4960838;29;20254;-79
2023/02/07 03:27:02;;;;;;;156.63;82.40;;;-4.80;99.90;;;;;;4961588;28;20207;-79
2023/02/07 03:29:31;;;;;;;151.40;77.70;;;-4.80;99.90;;;;;;4958105;28;20211;-80
2023/02/07 03:32:02;;;;;;;153.93;82.45;;;-4.80;99.90;;;;;;4954861;29;20294;-78
2023/02/07 03:34:37;;;;;;;147.05;77.70;;;-4.80;99.90;;;;;;4961035;28;20219;-79
2023/02/07 03:37:21;;;;;;;153.95;81.88;;;-4.80;99.90;;;;;;4961523;29;20217;-80
2023/02/07 03:39:49;;;;;;;163.40;79.35;;;-4.80;99.90;;;;;;4959741;29;20210;-78
2023/02/07 03:42:25;;;;;;;151.52;78.68;;;-4.80;99.90;;;;;;4972080;28;20442;-78
2023/02/07 03:44:54;;;;;;;141.85;76.85;;;-4.80;99.90;;;;;;4964773;28;20222;-78
2023/02/07 03:47:21;;;;;;;143.60;77.97;;;-4.70;99.90;;;;;;4967335;29;20203;-78
2023/02/07 03:49:48;;;;;;;149.35;78.53;;;-4.70;99.90;;;;;;4973469;29;20259;-81
2023/02/07 03:52:15;;;;;;;148.30;78.45;;;-4.70;99.90;;;;;;4959820;29;20259;-79
2023/02/07 03:54:42;;;;;;;148.85;82.53;;;-4.80;99.90;;;;;;4971465;29;20212;-79
2023/02/07 03:57:09;;;;;;;158.40;80.95;;;-4.80;99.90;;;;;;4970150;29;20203;-80
2023/02/07 03:59:36;;;;;;;158.85;79.03;;;-4.80;99.90;;;;;;4974949;28;20210;-81
2023/02/07 04:02:02;;;;;;;146.85;80.55;;;-4.80;99.90;;;;;;4979689;29;20202;-82
2023/02/07 04:04:32;;;;;;;137.85;79.53;;;-4.90;99.90;;;;;;4979507;29;20210;-82
2023/02/07 04:06:59;;;;;;;146.00;79.40;;;-5.00;99.90;;;;;;4979493;28;20218;-84
2023/02/07 04:09:26;;;;;;;149.00;80.68;;;-4.90;99.90;;;;;;4976806;28;20243;-81
2023/02/07 04:11:53;;;;;;;154.77;80.25;;;-4.90;99.90;;;;;;4964066;29;20230;-81
2023/02/07 04:14:20;;;;;;;158.30;80.95;;;-4.90;99.90;;;;;;4979989;28;20200;-81
2023/02/07 04:16:48;;;;;;;158.07;84.80;;;-4.90;99.90;;;;;;5002697;28;20202;-81
2023/02/07 04:19:16;;;;;;;154.07;79.90;;;-4.90;99.90;;;;;;4981659;28;20195;-81
2023/02/07 04:21:43;;;;;;;149.20;77.38;;;-4.90;99.90;;;;;;4973777;28;20207;-81
2023/02/07 04:24:11;;;;;;;152.77;79.28;;;-4.80;99.90;;;;;;4979185;28;20210;-80
2023/02/07 04:26:38;;;;;;;144.65;78.50;;;-4.80;99.90;;;;;;4971352;28;20203;-81
2023/02/07 04:29:05;;;;;;;150.77;79.35;;;-4.90;99.90;;;;;;4955107;29;20519;-81
2023/02/07 04:31:34;;;;;;;151.07;73.68;;;-4.90;99.90;;;;;;4974277;28;20210;-81
2023/02/07 04:34:01;;;;;;;161.45;79.72;;;-5.00;99.90;;;;;;4955656;28;20238;-80
2023/02/07 04:36:32;;;;;;;149.50;77.03;;;-5.10;99.90;;;;;;4971217;28;20210;-81
2023/02/07 04:38:59;;;;;;;148.52;75.20;;;-5.10;99.90;;;;;;4962228;29;20214;-78
2023/02/07 04:41:26;;;;;;;152.15;78.35;;;-5.10;99.90;;;;;;4958283;28;20219;-78
2023/02/07 04:43:53;;;;;;;145.35;73.22;;;-5.00;99.90;;;;;;4959181;28;20254;-80
2023/02/07 04:46:20;;;;;;;150.05;81.03;;;-5.00;99.90;;;;;;4959442;28;20226;-78
2023/02/07 04:48:47;;;;;;;163.65;82.53;;;-5.00;99.90;;;;;;4957618;28;20602;-81
2023/02/07 04:51:15;;;;;;;153.10;81.35;;;-5.00;99.90;;;;;;4955875;29;20407;-81
2023/02/07 04:53:42;;;;;;;151.20;82.47;;;-5.00;99.90;;;;;;4960686;28;20428;-82
2023/02/07 04:56:09;;;;;;;135.88;76.00;;;-5.10;99.90;;;;;;4954436;28;20372;-80
2023/02/07 04:58:36;;;;;;;158.07;79.70;;;-5.00;99.90;;;;;;4949513;29;20267;-81
2023/02/07 05:01:03;;;;;;;168.40;83.93;;;-5.00;99.90;;;;;;4957035;28;20262;-82
2023/02/07 05:03:31;;;;;;;167.45;83.30;;;-5.00;99.90;;;;;;4965830;28;20210;-80
2023/02/07 05:05:58;;;;;;;151.32;84.15;;;-5.00;99.90;;;;;;4957344;28;20202;-79
2023/02/07 05:08:25;;;;;;;160.77;78.43;;;-5.00;99.90;;;;;;4958526;28;20211;-81
2023/02/07 05:10:54;;;;;;;175.48;88.13;;;-5.00;99.90;;;;;;4958966;28;20211;-80
2023/02/07 05:13:23;;;;;;;152.32;78.32;;;-5.10;99.90;;;;;;4959066;28;20222;-80
2023/02/07 05:15:50;;;;;;;153.38;80.90;;;-5.20;99.90;;;;;;4959844;28;20262;-81
2023/02/07 05:18:17;;;;;;;150.52;80.18;;;-5.30;99.90;;;;;;4961934;28;20294;-81
2023/02/07 05:20:44;;;;;;;159.18;86.82;;;-5.30;99.90;;;;;;4954685;28;20207;-79
2023/02/07 05:23:11;;;;;;;154.63;82.93;;;-5.30;99.90;;;;;;4958952;28;20225;-81
2023/02/07 05:25:41;;;;;;;165.30;80.03;;;-5.20;99.90;;;;;;4958345;28;20254;-79
2023/02/07 05:28:09;;;;;;;153.88;79.57;;;-5.20;99.90;;;;;;4954498;28;20208;-81
2023/02/07 05:30:35;;;;;;;147.98;80.20;;;-5.20;99.90;;;;;;4959091;28;20264;-80
2023/02/07 05:33:02;;;;;;;148.77;75.97;;;-5.20;99.90;;;;;;4965895;28;20242;-85
2023/02/07 05:35:40;;;;;;;156.20;78.65;;;-5.30;99.90;;;;;;4969599;28;20211;-80
2023/02/07 05:38:10;;;;;;;153.20;82.05;;;-5.30;99.90;;;;;;4957442;28;20570;-80
2023/02/07 05:40:42;;;;;;;164.50;76.00;;;-5.30;99.90;;;;;;4956214;28;20221;-84
2023/02/07 05:43:11;;;;;;;147.95;75.03;;;-5.30;99.90;;;;;;4959930;28;20230;-80
2023/02/07 05:45:41;;;;;;;150.25;78.97;;;-5.40;99.90;;;;;;4965039;28;20233;-80
2023/02/07 05:48:08;;;;;;;160.45;85.13;;;-5.30;99.90;;;;;;4963003;28;20506;-80
2023/02/07 05:50:35;;;;;;;156.77;73.97;;;-5.30;99.90;;;;;;4966945;28;20282;-80
2023/02/07 05:53:03;;;;;;;162.45;79.03;;;-5.20;99.90;;;;;;4958530;28;20237;-79
2023/02/07 05:55:31;;;;;;;160.85;78.97;;;-5.20;99.90;;;;;;4958532;28;20315;-81
2023/02/07 05:57:58;;;;;;;151.70;78.70;;;-5.20;99.90;;;;;;4954903;28;20258;-80
2023/02/07 06:00:24;;;;;;;153.50;77.32;;;-5.20;99.90;;;;;;4967427;28;20260;-82
2023/02/07 06:02:52;;;;;;;149.07;72.38;;;-5.20;99.90;;;;;;4966350;28;20215;-79
2023/02/07 06:05:19;;;;;;;150.25;76.15;;;-5.30;99.90;;;;;;4957564;28;20396;-79
2023/02/07 06:07:46;;;;;;;157.25;76.18;;;-5.10;99.90;;;;;;4962922;28;20498;-79
2023/02/07 06:10:14;;;;;;;159.13;83.03;;;-5.20;99.90;;;;;;4961089;28;20199;-80
2023/02/07 06:12:40;;;;;;;155.57;77.38;;;-5.30;99.90;;;;;;4964889;28;20530;-79
2023/02/07 06:15:09;;;;;;;147.80;76.55;;;-5.20;99.90;;;;;;4961780;28;20286;-79
2023/02/07 06:17:36;;;;;;;156.13;82.72;;;-5.20;99.90;;;;;;4958651;29;20238;-82
2023/02/07 06:20:03;;;;;;;146.98;77.75;;;-5.20;99.90;;;;;;4958280;28;20199;-82
2023/02/07 06:22:31;;;;;;;173.85;83.28;;;-5.20;99.90;;;;;;4962128;28;20250;-79
2023/02/07 06:24:57;;;;;;;149.18;83.10;;;-5.30;99.90;;;;;;4970110;28;20501;-79
2023/02/07 06:27:24;;;;;;;178.68;91.03;;;-5.20;99.90;;;;;;4961970;28;20831;-80
2023/02/07 06:29:51;;;;;;;154.07;82.50;;;-5.10;99.90;;;;;;4958077;28;20211;-79
2023/02/07 06:32:18;;;;;;;149.93;83.65;;;-5.10;99.90;;;;;;4959859;29;20207;-81
2023/02/07 06:34:45;;;;;;;173.60;83.07;;;-5.10;99.90;;;;;;4959533;28;20223;-83
2023/02/07 06:37:12;;;;;;;155.77;84.07;;;-5.10;99.90;;;;;;4958373;28;20722;-80
2023/02/07 06:39:39;;;;;;;151.60;80.97;;;-5.00;99.90;;;;;;4959405;28;20239;-80
2023/02/07 06:42:06;;;;;;;155.85;81.43;;;-5.00;99.90;;;;;;4956137;28;20488;-80
2023/02/07 06:44:33;;;;;;;149.10;80.10;;;-4.90;99.90;;;;;;4961486;28;20262;-81
2023/02/07 06:47:00;;;;;;;165.40;91.20;;;-4.90;99.90;;;;;;4962796;28;20504;-80
2023/02/07 06:49:27;;;;;;;173.98;96.57;;;-4.70;99.90;;;;;;4963395;29;20338;-81
2023/02/07 06:51:55;;;;;;;183.55;96.45;;;-4.90;99.90;;;;;;4965206;28;20203;-80
2023/02/07 06:54:22;;;;;;;169.88;90.50;;;-4.90;99.90;;;;;;4963925;28;20570;-80
2023/02/07 06:56:49;;;;;;;154.23;83.68;;;-4.90;99.90;;;;;;4965419;28;20211;-82
2023/02/07 06:59:16;;;;;;;151.95;89.93;;;-5.00;99.90;;;;;;4961539;29;20385;-81
2023/02/07 07:01:43;;;;;;;150.25;81.30;;;-4.90;99.90;;;;;;4965068;28;20510;-81
2023/02/07 07:04:10;;;;;;;153.48;80.70;;;-4.90;99.90;;;;;;4955292;29;20259;-81
2023/02/07 07:06:37;;;;;;;138.45;79.57;;;-5.00;99.90;;;;;;4950750;28;20217;-81
2023/02/07 07:09:04;;;;;;;176.13;86.35;;;-4.80;99.90;;;;;;4962442;28;20207;-80
2023/02/07 07:11:31;;;;;;;155.77;81.32;;;-4.70;99.90;;;;;;4961519;28;20207;-80
2023/02/07 07:13:59;;;;;;;143.07;77.70;;;-4.40;99.90;;;;;;4962762;28;20422;-82
2023/02/07 07:16:26;;;;;;;129.05;75.32;;;-4.20;99.90;;;;;;4956919;28;20218;-82
2023/02/07 07:18:53;;;;;;;143.15;76.45;;;-4.10;99.90;;;;;;4960972;28;20199;-82
2023/02/07 07:21:20;;;;;;;140.27;76.45;;;-3.90;99.90;;;;;;4964281;28;20258;-83
2023/02/07 07:23:48;;;;;;;145.38;76.60;;;-4.00;99.90;;;;;;4954558;29;20215;-82
2023/02/07 07:26:15;;;;;;;152.48;80.18;;;-3.90;99.90;;;;;;4962147;28;20298;-81
2023/02/07 07:28:42;;;;;;;158.45;84.50;;;-3.80;99.90;;;;;;4962550;29;20246;-80
2023/02/07 07:31:12;;;;;;;134.40;76.90;;;-3.60;99.90;;;;;;4962188;29;20203;-79
2023/02/07 07:33:46;;;;;;;156.98;82.30;;;-3.30;99.90;;;;;;4961574;28;20410;-80
2023/02/07 07:36:14;;;;;;;139.73;76.78;;;-2.90;99.90;;;;;;4960766;28;20246;-81
2023/02/07 07:38:40;;;;;;;143.82;74.18;;;-3.00;99.90;;;;;;4960754;28;20394;-78
2023/02/07 07:41:13;;;;;;;142.73;72.32;;;-2.90;99.90;;;;;;4960801;29;20291;-82
2023/02/07 07:43:40;;;;;;;135.48;73.13;;;-2.60;99.90;;;;;;4944302;28;20211;-81
2023/02/07 07:46:08;;;;;;;134.32;68.03;;;-2.40;99.90;;;;;;4958288;28;20541;-80
2023/02/07 07:48:35;;;;;;;125.80;69.20;;;-2.40;99.90;;;;;;4957939;29;20218;-81
2023/02/07 07:51:03;;;;;;;117.35;62.10;;;-2.20;99.90;;;;;;4957161;28;20199;-81
2023/02/07 07:53:29;;;;;;;125.75;64.97;;;-1.70;99.90;;;;;;4961609;28;20270;-82
2023/02/07 07:55:57;;;;;;;114.15;63.97;;;-1.10;99.90;;;;;;4959290;28;20210;-81
2023/02/07 07:58:25;;;;;;;111.90;58.70;;;-0.60;99.90;;;;;;4961365;28;20222;-79
2023/02/07 08:00:52;;;;;;;87.40;54.38;;;0.30;99.90;;;;;;4954270;28;20230;-81
2023/02/07 08:03:19;;;;;;;100.93;52.75;;;1.00;99.90;;;;;;4959396;28;20215;-79
2023/02/07 08:05:47;;;;;;;92.57;51.35;;;0.70;99.90;;;;;;4961818;28;20258;-80
2023/02/07 08:08:15;;;;;;;87.38;53.38;;;1.40;99.90;;;;;;4961403;28;20203;-83
2023/02/07 08:10:43;;;;;;;87.25;49.05;;;1.70;99.90;;;;;;4960162;29;20243;-80
2023/02/07 08:13:09;;;;;;;96.93;52.50;;;2.20;99.90;;;;;;4960256;28;20260;-80
2023/02/07 08:15:38;;;;;;;87.38;46.83;;;2.50;99.90;;;;;;4960526;29;20754;-81
2023/02/07 08:18:05;;;;;;;83.68;46.67;;;2.90;99.90;;;;;;4959980;28;20202;-80
2023/02/07 08:20:34;;;;;;;83.82;47.88;;;3.10;99.90;;;;;;4960477;28;20214;-79
2023/02/07 08:23:01;;;;;;;81.65;43.75;;;2.60;99.90;;;;;;4959823;28;20220;-79
2023/02/07 08:25:29;;;;;;;89.57;46.80;;;1.80;99.90;;;;;;4959840;29;20226;-78
2023/02/07 08:27:56;;;;;;;81.85;45.35;;;1.20;99.90;;;;;;4958622;29;20519;-80
2023/02/07 08:30:23;;;;;;;89.45;49.33;;;0.70;99.90;;;;;;4959245;28;20249;-80
2023/02/07 08:32:50;;;;;;;99.93;52.88;;;0.60;99.90;;;;;;4975033;28;20207;-79
2023/02/07 08:35:18;;;;;;;110.80;57.60;;;0.00;99.90;;;;;;4959264;29;20206;-78
2023/02/07 08:37:45;;;;;;;95.65;50.65;;;-0.20;99.90;;;;;;4959580;28;20226;-79
2023/02/07 08:40:12;;;;;;;89.28;49.25;;;-0.30;99.90;;;;;;4959147;28;20230;-80
2023/02/07 08:42:39;;;;;;;80.40;49.70;;;-0.30;99.90;;;;;;4960450;28;20238;-79
2023/02/07 08:45:06;;;;;;;103.68;51.00;;;0.20;99.90;;;;;;4960928;28;20218;-80
2023/02/07 08:47:33;;;;;;;83.43;49.85;;;1.00;99.90;;;;;;4964059;29;20239;-79
2023/02/07 08:50:03;;;;;;;83.28;45.97;;;1.70;99.90;;;;;;4959831;28;20212;-78
2023/02/07 08:52:30;;;;;;;91.38;47.45;;;2.90;99.90;;;;;;4958339;28;20205;-79
2023/02/07 08:54:57;;;;;;;84.05;46.80;;;4.10;99.90;;;;;;4959687;28;20328;-79
2023/02/07 08:57:25;;;;;;;71.43;43.60;;;5.10;99.90;;;;;;4959133;29;20404;-77
2023/02/07 08:59:52;;;;;;;77.68;42.20;;;5.70;99.90;;;;;;4959122;28;20550;-78
2023/02/07 09:02:20;;;;;;;59.78;38.25;;;6.50;99.90;;;;;;4958656;28;20423;-78
2023/02/07 09:04:47;;;;;;;56.10;35.80;;;7.00;99.90;;;;;;4959326;28;20218;-78
2023/02/07 09:07:14;;;;;;;59.15;36.45;;;7.40;99.90;;;;;;4958653;28;20218;-77
2023/02/07 09:09:41;;;;;;;52.70;33.10;;;7.00;99.90;;;;;;4957751;29;20711;-77
2023/02/07 09:12:10;;;;;;;52.53;33.20;;;6.60;99.90;;;;;;4960854;29;20430;-79
2023/02/07 09:14:38;;;;;;;56.97;32.80;;;6.80;99.90;;;;;;4959834;29;20290;-77
2023/02/07 09:17:07;;;;;;;49.03;29.38;;;6.70;99.90;;;;;;4957843;28;20208;-78
2023/02/07 09:19:34;;;;;;;60.60;32.10;;;7.10;99.90;;;;;;4957470;28;20211;-76
2023/02/07 09:22:02;;;;;;;47.03;29.70;;;7.00;99.90;;;;;;4958146;28;20263;-77
2023/02/07 09:24:30;;;;;;;43.22;28.92;;;6.30;99.90;;;;;;4958105;28;20387;-77
2023/02/07 09:26:57;;;;;;;42.67;27.98;;;5.70;99.90;;;;;;4958311;28;20282;-78
2023/02/07 09:29:24;;;;;;;33.28;22.48;;;4.50;99.90;;;;;;4958247;28;20203;-77
2023/02/07 09:31:51;;;;;;;40.30;25.10;;;3.80;99.90;;;;;;4959186;28;20207;-77
2023/02/07 09:34:19;;;;;;;40.50;26.52;;;3.30;99.90;;;;;;4959473;28;20299;-78
2023/02/07 09:36:46;;;;;;;43.08;26.20;;;2.80;99.90;;;;;;4961789;28;20202;-79
2023/02/07 09:39:13;;;;;;;46.83;25.65;;;2.70;99.90;;;;;;4961406;29;20214;-78
2023/02/07 09:41:51;;;;;;;37.50;23.95;;;2.30;99.90;;;;;;4960777;29;20214;-80
2023/02/07 09:44:24;;;;;;;29.27;20.40;;;1.80;99.90;;;;;;4962481;28;20236;-79
2023/02/07 09:47:00;;;;;;;29.83;19.67;;;1.60;99.90;;;;;;4962061;28;20500;-79
2023/02/07 09:49:36;;;;;;;32.08;20.52;;;1.40;99.90;;;;;;4961951;28;20250;-79
2023/02/07 09:52:09;;;;;;;33.75;21.58;;;1.30;99.90;;;;;;4962145;28;20246;-77
2023/02/07 09:54:51;;;;;;;28.40;17.50;;;1.30;99.90;;;;;;4961463;28;20534;-77
2023/02/07 09:57:25;;;;;;;28.88;18.33;;;1.10;99.90;;;;;;4961251;28;20214;-79
2023/02/07 10:00:06;;;;;;;44.08;25.50;;;1.20;99.90;;;;;;4961830;29;20207;-76
2023/02/07 10:02:57;;;;;;;47.22;27.08;;;1.30;99.90;;;;;;4961443;28;20297;-79
2023/02/07 10:05:39;;;;;;;52.55;30.58;;;1.20;99.90;;;;;;4959801;28;20219;-79
2023/02/07 10:08:12;;;;;;;51.53;29.73;;;1.10;99.90;;;;;;4960263;28;20251;-80
2023/02/07 10:10:51;;;;;;;46.80;27.95;;;1.20;99.90;;;;;;4961063;28;20207;-78
2023/02/07 10:13:18;;;;;;;55.67;26.98;;;1.20;99.90;;;;;;4957841;29;20254;-77
2023/02/07 10:16:05;;;;;;;43.78;27.05;;;1.00;99.90;;;;;;4960969;28;20211;-78
2023/02/07 10:18:42;;;;;;;44.42;25.00;;;1.00;99.90;;;;;;4958968;29;20195;-77
2023/02/07 10:21:26;;;;;;;39.63;23.23;;;1.10;99.90;;;;;;4961650;28;20247;-79
2023/02/07 10:23:52;;;;;;;37.88;22.15;;;1.00;99.90;;;;;;4961122;29;20212;-80
2023/02/07 10:26:38;;;;;;;37.20;22.55;;;1.00;99.90;;;;;;4961312;28;20219;-78
2023/02/07 10:29:16;;;;;;;36.15;22.73;;;1.10;99.90;;;;;;4961555;28;20501;-79
2023/02/07 10:31:50;;;;;;;32.80;20.80;;;1.00;99.90;;;;;;4961539;28;20210;-79
2023/02/07 10:34:24;;;;;;;29.60;20.65;;;1.00;99.90;;;;;;4960438;28;20522;-79
2023/02/07 10:36:55;;;;;;;36.60;21.75;;;0.90;99.90;;;;;;4959738;28;20289;-79
2023/02/07 10:39:58;;;;;;;32.92;18.10;;;1.00;99.90;;;;;;4960618;29;20207;-78
2023/02/07 10:42:26;;;;;;;30.25;18.27;;;1.10;99.90;;;;;;4895806;28;20292;-79
2023/02/07 10:44:53;;;;;;;30.95;16.83;;;1.10;99.90;;;;;;4960733;28;20461;-79
2023/02/07 10:47:22;;;;;;;27.20;18.40;;;1.30;99.90;;;;;;4955712;29;20218;-80
2023/02/07 10:49:52;;;;;;;33.03;19.13;;;1.40;99.90;;;;;;4953504;28;20246;-79
2023/02/07 10:52:34;;;;;;;31.65;19.17;;;1.60;99.90;;;;;;4960392;28;20208;-80
2023/02/07 10:55:04;;;;;;;32.78;16.52;;;1.70;99.90;;;;;;4955061;29;20221;-80
2023/02/07 10:57:32;;;;;;;26.70;19.02;;;1.40;99.90;;;;;;4960542;28;20268;-78
2023/02/07 11:00:01;;;;;;;27.70;16.88;;;1.40;99.90;;;;;;4960920;28;20224;-81
2023/02/07 11:02:31;;;;;;;22.70;15.07;;;1.50;99.90;;;;;;4960721;29;20454;-78
2023/02/07 11:05:07;;;;;;;28.80;16.90;;;1.60;99.90;;;;;;4961176;28;20391;-79
2023/02/07 11:07:34;;;;;;;27.85;16.23;;;1.60;99.90;;;;;;4959949;29;20490;-79
2023/02/07 11:10:15;;;;;;;22.20;15.95;;;1.50;99.90;;;;;;4960452;29;20206;-78
2023/02/07 11:13:03;;;;;;;21.92;14.30;;;1.30;99.90;;;;;;4960812;28;20215;-79
2023/02/07 11:15:59;;;;;;;23.42;11.73;;;0.90;99.90;;;;;;4960836;28;20275;-79
2023/02/07 11:18:36;;;;;;;21.25;12.20;;;0.60;99.90;;;;;;4959913;28;20219;-80
2023/02/07 11:21:27;;;;;;;17.02;10.65;;;0.40;99.90;;;;;;4959477;28;20207;-79
2023/02/07 11:24:02;;;;;;;16.05;11.05;;;0.60;99.90;;;;;;4953255;28;20257;-81
2023/02/07 11:26:31;;;;;;;20.80;11.10;;;1.00;99.90;;;;;;4960411;28;20216;-82
2023/02/07 11:29:20;;;;;;;20.45;12.70;;;1.20;99.90;;;;;;4975272;28;20206;-79
2023/02/07 11:31:48;;;;;;;18.08;10.70;;;1.70;99.90;;;;;;4960095;28;20286;-80
2023/02/07 11:34:34;;;;;;;15.85;10.80;;;2.20;99.90;;;;;;4960143;28;20235;-81
2023/02/07 11:37:16;;;;;;;17.25;12.00;;;2.50;99.90;;;;;;4960140;29;20212;-80
2023/02/07 11:39:44;;;;;;;20.42;12.70;;;2.40;99.90;;;;;;4960135;28;20213;-81
2023/02/07 11:42:20;;;;;;;20.80;12.52;;;2.80;99.90;;;;;;4959810;28;20554;-81
2023/02/07 11:44:48;;;;;;;18.38;11.20;;;3.20;99.90;;;;;;4960318;29;20279;-80
2023/02/07 11:47:20;;;;;;;18.38;11.35;;;3.50;99.90;;;;;;4955773;29;20540;-81
2023/02/07 11:49:57;;;;;;;18.10;11.80;;;3.60;99.90;;;;;;4960010;29;20260;-79
2023/02/07 11:52:25;;;;;;;20.55;13.65;;;3.70;99.90;;;;;;4959613;29;20216;-80
2023/02/07 11:55:01;;;;;;;16.33;11.25;;;4.10;99.90;;;;;;4960768;28;20238;-78
2023/02/07 11:57:31;;;;;;;19.50;12.13;;;3.90;99.90;;;;;;4960800;28;20360;-79
2023/02/07 12:00:23;;;;;;;18.58;11.50;;;3.60;99.90;;;;;;4959329;28;20217;-79
2023/02/07 12:03:21;;;;;;;20.55;11.52;;;4.00;99.90;;;;;;4963372;28;20551;-81
2023/02/07 12:05:52;;;;;;;26.40;11.55;;;3.50;99.90;;;;;;4959642;28;20407;-79
2023/02/07 12:08:23;;;;;;;17.13;9.98;;;2.80;99.90;;;;;;4959415;28;20236;-79
2023/02/07 12:10:54;;;;;;;17.83;11.15;;;2.40;99.90;;;;;;4943559;29;20253;-81
2023/02/07 12:13:38;;;;;;;15.70;9.48;;;2.50;99.90;;;;;;4958958;28;20260;-79
2023/02/07 12:16:16;;;;;;;14.52;8.82;;;2.70;99.90;;;;;;4954243;29;20405;-82
2023/02/07 12:18:55;;;;;;;20.50;12.52;;;2.80;99.90;;;;;;4958869;29;20252;-80
2023/02/07 12:21:25;;;;;;;20.42;11.07;;;2.90;99.90;;;;;;4959660;28;20248;-78
2023/02/07 12:24:19;;;;;;;25.45;13.38;;;2.80;99.90;;;;;;4952285;29;20214;-80
2023/02/07 12:26:49;;;;;;;18.30;11.55;;;2.70;99.90;;;;;;4958737;28;20435;-80
2023/02/07 12:29:45;;;;;;;17.70;10.30;;;2.60;99.90;;;;;;4959025;28;20458;-80
2023/02/07 12:32:26;;;;;;;18.90;11.82;;;2.50;99.90;;;;;;4958543;28;20270;-78
2023/02/07 12:35:17;;;;;;;26.50;12.95;;;2.90;99.90;;;;;;4969385;28;20229;-78
2023/02/07 12:38:14;;;;;;;21.67;14.10;;;2.70;99.90;;;;;;4959930;28;20655;-81
2023/02/07 12:40:50;;;;;;;18.52;10.95;;;2.40;99.90;;;;;;4959458;28;20264;-78
2023/02/07 12:43:26;;;;;;;17.02;11.35;;;2.20;99.90;;;;;;4957661;28;20217;-80
2023/02/07 12:45:59;;;;;;;19.05;12.35;;;2.40;99.90;;;;;;4959748;28;20214;-80